createdAt,value
2019-02-10T00:01:26.477Z,1.93
2019-02-10T00:03:55.858Z,2.20
2019-02-10T00:06:25.292Z,2.10
2019-02-10T00:08:54.950Z,1.97
2019-02-10T00:11:24.037Z,2.40
2019-02-10T00:13:53.580Z,2.40
2019-02-10T00:16:22.770Z,1.83
2019-02-10T00:18:51.920Z,2.27
2019-02-10T00:21:21.062Z,2.13
2019-02-10T00:23:50.536Z,3.10
2019-02-10T00:26:19.699Z,2.20
2019-02-10T00:28:48.902Z,2.23
2019-02-10T00:31:18.406Z,2.00
2019-02-10T00:33:47.777Z,2.40
2019-02-10T00:36:16.967Z,2.50
2019-02-10T00:38:46.485Z,1.93
2019-02-10T00:41:15.898Z,1.77
2019-02-10T00:43:45.531Z,1.70
2019-02-10T00:46:15.319Z,2.10
2019-02-10T00:48:45.200Z,2.10
2019-02-10T00:51:14.924Z,1.80
2019-02-10T00:53:44.868Z,2.00
2019-02-10T00:56:14.336Z,2.03
2019-02-10T00:58:43.525Z,2.30
2019-02-10T01:01:13.288Z,2.23
2019-02-10T01:03:42.414Z,1.93
2019-02-10T01:06:11.655Z,1.80
2019-02-10T01:08:41.010Z,1.73
2019-02-10T01:11:10.452Z,2.23
2019-02-10T01:13:39.611Z,1.80
2019-02-10T01:16:08.774Z,2.10
2019-02-10T01:18:37.915Z,2.43
2019-02-10T01:21:07.131Z,2.10
2019-02-10T01:23:36.500Z,2.40
2019-02-10T01:26:06.044Z,1.80
2019-02-10T01:28:35.440Z,1.90
2019-02-10T01:31:04.629Z,1.83
2019-02-10T01:33:33.995Z,1.80
2019-02-10T01:36:03.453Z,2.00
2019-02-10T01:38:32.600Z,1.80
2019-02-10T01:41:01.755Z,2.23
2019-02-10T01:43:31.149Z,2.47
2019-02-10T01:46:00.324Z,2.60
2019-02-10T01:48:30.022Z,2.10
2019-02-10T01:50:59.180Z,2.17
2019-02-10T01:53:28.321Z,1.77
2019-02-10T01:55:57.741Z,1.93
2019-02-10T01:58:26.870Z,1.87
2019-02-10T02:00:56.231Z,1.90
2019-02-10T02:03:25.709Z,2.00
2019-02-10T02:05:54.869Z,2.03
2019-02-10T02:08:24.324Z,1.90
2019-02-10T02:10:53.487Z,2.07
2019-02-10T02:13:22.608Z,2.23
2019-02-10T02:15:51.962Z,2.00
2019-02-10T02:18:21.110Z,1.90
2019-02-10T02:20:50.225Z,2.07
2019-02-10T02:23:19.365Z,1.80
2019-02-10T02:25:48.748Z,1.73
2019-02-10T02:28:18.243Z,2.47
2019-02-10T02:30:47.473Z,2.20
2019-02-10T02:33:16.606Z,2.70
2019-02-10T02:35:45.985Z,2.77
2019-02-10T02:38:15.120Z,2.10
2019-02-10T02:40:44.279Z,2.57
2019-02-10T02:43:13.411Z,2.13
2019-02-10T02:45:42.616Z,2.00
2019-02-10T02:48:11.762Z,2.10
2019-02-10T02:50:41.115Z,2.70
2019-02-10T02:53:10.513Z,2.20
2019-02-10T02:55:39.750Z,2.43
2019-02-10T02:58:09.182Z,2.07
2019-02-10T03:00:38.548Z,2.23
2019-02-10T03:03:07.979Z,2.03
2019-02-10T03:05:37.370Z,2.07
2019-02-10T03:08:06.790Z,1.97
2019-02-10T03:10:35.911Z,2.67
2019-02-10T03:13:05.099Z,2.63
2019-02-10T03:15:34.229Z,2.03
2019-02-10T03:18:03.924Z,2.57
2019-02-10T03:20:33.425Z,2.43
2019-02-10T03:23:02.572Z,1.90
2019-02-10T03:25:31.732Z,2.90
2019-02-10T03:28:01.158Z,2.63
2019-02-10T03:30:30.541Z,2.00
2019-02-10T03:32:59.912Z,2.20
2019-02-10T03:35:29.309Z,2.67
2019-02-10T03:37:58.459Z,2.50
2019-02-10T03:40:27.813Z,2.90
2019-02-10T03:42:56.970Z,2.57
2019-02-10T03:45:26.331Z,2.73
2019-02-10T03:47:55.486Z,2.17
2019-02-10T03:50:24.626Z,2.30
2019-02-10T03:52:53.752Z,2.37
2019-02-10T03:55:22.862Z,2.03
2019-02-10T03:57:52.392Z,2.40
2019-02-10T04:00:21.558Z,2.60
2019-02-10T04:02:50.678Z,3.13
2019-02-10T04:05:20.393Z,2.40
2019-02-10T04:07:49.566Z,3.20
2019-02-10T04:10:18.928Z,2.77
2019-02-10T04:12:48.303Z,2.50
2019-02-10T04:15:17.439Z,2.27
2019-02-10T04:17:46.820Z,2.13
2019-02-10T04:20:16.296Z,2.40
2019-02-10T04:22:45.421Z,2.80
2019-02-10T04:25:14.678Z,2.53
2019-02-10T04:27:43.867Z,1.90
2019-02-10T04:30:13.230Z,2.50
2019-02-10T04:32:42.600Z,2.00
2019-02-10T04:35:12.005Z,2.20
2019-02-10T04:37:45.935Z,2.50
2019-02-10T04:40:11.937Z,2.27
2019-02-10T04:42:41.295Z,2.33
2019-02-10T04:45:10.530Z,2.70
2019-02-10T04:47:39.684Z,2.50
2019-02-10T04:50:08.867Z,2.17
2019-02-10T04:52:38.081Z,2.17
2019-02-10T04:55:08.166Z,2.40
2019-02-10T04:57:37.520Z,2.33
2019-02-10T05:00:09.758Z,2.67
2019-02-10T05:02:39.424Z,2.23
2019-02-10T05:05:08.583Z,2.10
2019-02-10T05:07:37.971Z,2.60
2019-02-10T05:10:07.599Z,2.60
2019-02-10T05:12:36.840Z,2.30
2019-02-10T05:15:07.646Z,2.70
2019-02-10T05:17:36.737Z,2.60
2019-02-10T05:20:07.447Z,2.73
2019-02-10T05:22:36.819Z,2.40
2019-02-10T05:25:07.148Z,2.00
2019-02-10T05:27:36.318Z,2.60
2019-02-10T05:30:06.077Z,2.80
2019-02-10T05:32:35.232Z,2.33
2019-02-10T05:35:05.686Z,2.33
2019-02-10T05:37:35.044Z,2.33
2019-02-10T05:40:05.269Z,2.30
2019-02-10T05:42:34.633Z,2.63
2019-02-10T05:45:04.173Z,2.50
2019-02-10T05:47:33.313Z,2.30
2019-02-10T05:50:02.739Z,2.30
2019-02-10T05:52:31.876Z,2.73
2019-02-10T05:55:03.741Z,2.63
2019-02-10T05:57:33.123Z,2.17
2019-02-10T06:00:02.586Z,2.30
2019-02-10T06:02:31.732Z,2.27
2019-02-10T06:05:02.574Z,2.60
2019-02-10T06:07:31.968Z,2.27
2019-02-10T06:10:01.319Z,2.50
2019-02-10T06:12:30.454Z,2.77
2019-02-10T06:14:59.964Z,2.60
2019-02-10T06:17:29.333Z,2.30
2019-02-10T06:19:58.468Z,2.33
2019-02-10T06:22:27.632Z,1.67
2019-02-10T06:24:56.757Z,2.00
2019-02-10T06:27:26.125Z,2.27
2019-02-10T06:29:55.481Z,2.10
2019-02-10T06:32:24.666Z,2.30
2019-02-10T06:34:54.090Z,2.00
2019-02-10T06:37:23.505Z,2.40
2019-02-10T06:39:52.621Z,2.23
2019-02-10T06:42:21.994Z,2.27
2019-02-10T06:44:51.406Z,2.03
2019-02-10T06:47:20.534Z,1.80
2019-02-10T06:49:49.903Z,2.37
2019-02-10T06:52:19.118Z,2.73
2019-02-10T06:54:54.613Z,2.33
2019-02-10T06:57:23.840Z,2.00
2019-02-10T06:59:57.387Z,2.33
2019-02-10T07:02:28.153Z,2.13
2019-02-10T07:04:57.295Z,2.47
2019-02-10T07:07:26.920Z,2.43
2019-02-10T07:09:56.036Z,2.20
2019-02-10T07:12:49.778Z,2.43
2019-02-10T07:16:13.142Z,2.37
2019-02-10T07:19:18.426Z,2.50
2019-02-10T07:21:47.859Z,2.57
2019-02-10T07:24:47.008Z,2.27
2019-02-10T07:27:21.957Z,2.47
2019-02-10T07:30:11.195Z,2.70
2019-02-10T07:33:00.225Z,2.50
2019-02-10T07:35:44.107Z,2.20
2019-02-10T07:38:38.507Z,2.30
2019-02-10T07:41:39.801Z,2.37
2019-02-10T07:44:25.789Z,2.23
2019-02-10T07:47:14.412Z,1.90
2019-02-10T07:50:18.089Z,2.20
2019-02-10T07:53:00.716Z,2.20
2019-02-10T07:55:49.646Z,2.23
2019-02-10T07:58:33.772Z,2.50
2019-02-10T08:01:11.788Z,2.00
2019-02-10T08:04:01.852Z,2.30
2019-02-10T08:06:50.370Z,2.23
2019-02-10T08:09:27.397Z,2.03
2019-02-10T08:11:59.684Z,2.17
2019-02-10T08:14:37.669Z,2.00
2019-02-10T08:17:29.584Z,2.27
2019-02-10T08:20:18.188Z,2.23
2019-02-10T08:22:59.286Z,2.03
2019-02-10T08:25:40.378Z,2.03
2019-02-10T08:28:29.061Z,2.20
2019-02-10T08:31:31.255Z,1.90
2019-02-10T08:34:05.352Z,1.97
2019-02-10T08:36:56.702Z,2.10
2019-02-10T08:39:37.933Z,2.20
2019-02-10T08:42:28.384Z,2.10
2019-02-10T08:45:17.008Z,2.10
2019-02-10T08:47:52.036Z,2.13
2019-02-10T08:50:37.891Z,1.83
2019-02-10T08:53:13.005Z,1.83
2019-02-10T08:55:42.097Z,1.83
2019-02-10T08:58:11.476Z,2.03
2019-02-10T09:00:40.634Z,1.80
2019-02-10T09:03:19.636Z,1.80
2019-02-10T09:05:52.005Z,1.73
2019-02-10T09:08:25.363Z,2.00
2019-02-10T09:10:55.770Z,1.57
2019-02-10T09:13:28.763Z,1.80
2019-02-10T09:16:00.327Z,2.03
2019-02-10T09:18:32.288Z,1.87
2019-02-10T09:21:05.164Z,2.17
2019-02-10T09:23:34.712Z,2.00
2019-02-10T09:26:08.265Z,2.10
2019-02-10T09:28:39.460Z,1.73
2019-02-10T09:31:09.422Z,1.67
2019-02-10T09:33:41.589Z,1.87
2019-02-10T09:36:12.044Z,1.80
2019-02-10T09:38:44.113Z,1.70
2019-02-10T09:41:14.640Z,1.70
2019-02-10T09:43:44.628Z,2.00
2019-02-10T09:46:15.309Z,1.50
2019-02-10T09:48:45.223Z,4.87
2019-02-10T09:51:15.636Z,2.00
2019-02-10T09:53:47.152Z,1.83
2019-02-10T09:56:17.821Z,1.60
2019-02-10T09:58:48.362Z,1.80
2019-02-10T10:01:21.912Z,2.00
2019-02-10T10:03:52.889Z,1.80
2019-02-10T10:06:26.198Z,1.73
2019-02-10T10:08:59.082Z,1.50
2019-02-10T10:11:29.250Z,2.10
2019-02-10T10:13:59.628Z,1.60
2019-02-10T10:16:30.157Z,1.90
2019-02-10T10:19:00.325Z,1.60
2019-02-10T10:21:32.185Z,1.73
2019-02-10T10:24:03.737Z,1.70
2019-02-10T10:26:33.856Z,1.60
2019-02-10T10:29:11.964Z,1.90
2019-02-10T10:32:13.029Z,1.90
2019-02-10T10:35:03.385Z,1.60
2019-02-10T10:37:37.685Z,1.70
2019-02-10T10:40:23.062Z,1.73
2019-02-10T10:42:53.377Z,1.60
2019-02-10T10:45:23.950Z,2.13
2019-02-10T10:47:55.656Z,1.80
2019-02-10T10:50:26.083Z,1.60
2019-02-10T10:52:58.253Z,1.90
2019-02-10T10:55:28.471Z,1.60
2019-02-10T10:57:58.693Z,1.67
2019-02-10T11:00:29.451Z,1.70
2019-02-10T11:03:01.184Z,1.30
2019-02-10T11:05:31.662Z,1.73
2019-02-10T11:08:01.867Z,1.50
2019-02-10T11:10:31.784Z,1.60
2019-02-10T11:13:02.839Z,1.57
2019-02-10T11:15:33.727Z,1.90
2019-02-10T11:18:04.411Z,1.40
2019-02-10T11:20:37.549Z,1.87
2019-02-10T11:23:09.308Z,1.57
2019-02-10T11:25:43.973Z,1.60
2019-02-10T11:28:13.745Z,1.10
2019-02-10T11:30:44.223Z,1.50
2019-02-10T11:33:13.923Z,1.50
2019-02-10T11:35:44.404Z,1.50
2019-02-10T11:38:18.829Z,1.50
2019-02-10T11:40:49.101Z,2.00
2019-02-10T11:43:19.128Z,1.40
2019-02-10T11:45:52.107Z,1.50
2019-02-10T11:48:22.275Z,1.80
2019-02-10T11:50:52.553Z,1.60
2019-02-10T11:53:22.718Z,1.40
2019-02-10T11:55:52.595Z,1.60
2019-02-10T11:58:22.716Z,1.37
2019-02-10T12:00:54.100Z,1.30
2019-02-10T12:03:30.288Z,1.90
2019-02-10T12:06:06.422Z,1.40
2019-02-10T12:08:37.535Z,1.50
2019-02-10T12:11:07.959Z,1.40
2019-02-10T12:13:40.452Z,1.70
2019-02-10T12:16:10.638Z,1.70
2019-02-10T12:18:43.036Z,1.37
2019-02-10T12:21:14.180Z,1.50
2019-02-10T12:23:46.165Z,1.27
2019-02-10T12:26:19.433Z,1.30
2019-02-10T12:28:49.681Z,1.90
2019-02-10T12:31:19.852Z,1.63
2019-02-10T12:33:50.383Z,1.40
2019-02-10T12:36:22.176Z,1.23
2019-02-10T12:38:54.049Z,1.33
2019-02-10T12:41:25.244Z,1.43
2019-02-10T12:43:56.005Z,1.33
2019-02-10T12:46:26.301Z,1.73
2019-02-10T12:48:58.520Z,1.83
2019-02-10T12:51:30.379Z,1.50
2019-02-10T12:54:00.551Z,1.37
2019-02-10T12:56:34.308Z,1.27
2019-02-10T12:59:07.598Z,1.50
2019-02-10T13:01:40.025Z,1.67
2019-02-10T13:04:10.038Z,1.73
2019-02-10T13:06:41.590Z,1.60
2019-02-10T13:09:12.786Z,1.60
2019-02-10T13:11:43.119Z,1.90
2019-02-10T13:14:15.186Z,1.37
2019-02-10T13:16:45.141Z,1.30
2019-02-10T13:19:15.316Z,1.77
2019-02-10T13:21:45.343Z,1.70
2019-02-10T13:24:15.661Z,1.37
2019-02-10T13:26:45.791Z,1.77
2019-02-10T13:29:16.183Z,2.10
2019-02-10T13:31:46.747Z,1.90
2019-02-10T13:34:27.218Z,1.63
2019-02-10T13:36:50.471Z,1.50
2019-02-10T13:39:20.874Z,1.50
2019-02-10T13:41:49.782Z,1.57
2019-02-10T13:44:24.594Z,1.70
2019-02-10T13:46:55.081Z,1.63
2019-02-10T13:49:25.164Z,1.70
2019-02-10T13:51:55.309Z,1.53
2019-02-10T13:54:28.591Z,1.70
2019-02-10T13:57:05.971Z,1.43
2019-02-10T13:59:39.222Z,2.03
2019-02-10T14:02:09.698Z,1.40
2019-02-10T14:04:41.520Z,1.80
2019-02-10T14:07:17.784Z,2.57
2019-02-10T14:09:47.736Z,1.53
2019-02-10T14:12:19.610Z,2.17
2019-02-10T14:14:49.989Z,1.43
2019-02-10T14:17:21.238Z,1.80
2019-02-10T14:19:51.496Z,1.60
2019-02-10T14:22:21.674Z,1.73
2019-02-10T14:24:52.263Z,1.77
2019-02-10T14:27:22.039Z,2.00
2019-02-10T14:29:51.389Z,1.37
2019-02-10T14:32:21.524Z,1.90
2019-02-10T14:34:50.921Z,1.60
2019-02-10T14:37:20.354Z,1.80
2019-02-10T14:39:49.603Z,2.00
2019-02-10T14:42:18.982Z,2.07
2019-02-10T14:44:48.377Z,1.90
2019-02-10T14:47:17.542Z,1.80
2019-02-10T14:49:46.955Z,1.63
2019-02-10T14:52:17.263Z,1.80
2019-02-10T14:54:46.805Z,1.60
2019-02-10T14:57:15.943Z,1.53
2019-02-10T14:59:45.322Z,1.57
2019-02-10T15:02:14.748Z,1.80
2019-02-10T15:04:43.875Z,2.10
2019-02-10T15:07:13.235Z,1.87
2019-02-10T15:09:42.513Z,1.80
2019-02-10T15:12:12.051Z,1.70
2019-02-10T15:14:41.478Z,1.43
2019-02-10T15:17:10.667Z,1.50
2019-02-10T15:19:40.019Z,1.73
2019-02-10T15:22:09.412Z,1.60
2019-02-10T15:24:38.569Z,1.80
2019-02-10T15:27:07.989Z,1.40
2019-02-10T15:29:37.372Z,2.00
2019-02-10T15:32:06.558Z,1.90
2019-02-10T15:34:35.984Z,1.63
2019-02-10T15:37:05.355Z,1.90
2019-02-10T15:39:34.899Z,2.23
2019-02-10T15:42:09.385Z,1.60
2019-02-10T15:44:35.648Z,2.20
2019-02-10T15:47:04.891Z,2.07
2019-02-10T15:49:34.038Z,1.50
2019-02-10T15:52:03.203Z,1.80
2019-02-10T15:54:32.585Z,1.40
2019-02-10T15:57:01.936Z,1.77
2019-02-10T15:59:31.340Z,1.70
2019-02-10T16:02:01.047Z,1.50
2019-02-10T16:04:30.179Z,1.80
2019-02-10T16:06:59.537Z,1.97
2019-02-10T16:09:28.934Z,1.33
2019-02-10T16:11:58.072Z,1.63
2019-02-10T16:14:27.681Z,1.50
2019-02-10T16:16:56.887Z,1.60
2019-02-10T16:19:26.055Z,1.47
2019-02-10T16:21:55.517Z,1.57
2019-02-10T16:24:24.632Z,1.40
2019-02-10T16:26:53.779Z,1.80
2019-02-10T16:29:23.227Z,1.57
2019-02-10T16:31:52.581Z,1.90
2019-02-10T16:34:21.962Z,1.80
2019-02-10T16:36:51.352Z,1.57
2019-02-10T16:39:20.945Z,1.57
2019-02-10T16:41:50.195Z,1.40
2019-02-10T16:44:19.355Z,1.40
2019-02-10T16:46:49.547Z,1.47
2019-02-10T16:49:18.762Z,1.30
2019-02-10T16:51:48.381Z,1.73
2019-02-10T16:54:17.533Z,1.50
2019-02-10T16:56:46.650Z,1.30
2019-02-10T16:59:16.468Z,1.40
2019-02-10T17:01:45.835Z,1.30
2019-02-10T17:04:15.063Z,1.80
2019-02-10T17:06:44.200Z,1.50
2019-02-10T17:09:13.581Z,1.53
2019-02-10T17:11:42.818Z,1.53
2019-02-10T17:14:12.080Z,1.30
2019-02-10T17:16:41.232Z,1.80
2019-02-10T17:19:10.404Z,1.70
2019-02-10T17:21:39.787Z,1.37
2019-02-10T17:24:09.598Z,1.47
2019-02-10T17:26:38.754Z,1.40
2019-02-10T17:29:09.329Z,1.67
2019-02-10T17:31:38.472Z,1.30
2019-02-10T17:34:07.672Z,1.57
2019-02-10T17:36:36.775Z,1.50
2019-02-10T17:39:07.966Z,1.60
2019-02-10T17:41:37.200Z,1.30
2019-02-10T17:44:06.541Z,1.47
2019-02-10T17:46:35.652Z,1.37
2019-02-10T17:49:05.660Z,1.67
2019-02-10T17:51:34.809Z,1.60
2019-02-10T17:54:04.074Z,1.70
2019-02-10T17:56:33.448Z,1.43
2019-02-10T17:59:02.564Z,1.40
2019-02-10T18:01:32.184Z,1.63
2019-02-10T18:04:01.562Z,1.77
2019-02-10T18:06:30.715Z,1.50
2019-02-10T18:09:00.091Z,1.37
2019-02-10T18:11:31.171Z,1.40
2019-02-10T18:14:00.734Z,1.23
2019-02-10T18:16:31.662Z,1.10
2019-02-10T18:19:02.507Z,1.33
2019-02-10T18:21:37.283Z,1.40
2019-02-10T18:24:16.944Z,1.30
2019-02-10T18:26:47.698Z,1.47
2019-02-10T18:29:27.797Z,0.90
2019-02-10T18:32:01.400Z,1.30
2019-02-10T18:34:38.283Z,1.27
2019-02-10T18:37:15.508Z,1.10
2019-02-10T18:39:46.356Z,1.30
2019-02-10T18:42:21.150Z,1.47
2019-02-10T18:45:04.260Z,1.27
2019-02-10T18:47:44.608Z,0.90
2019-02-10T18:50:34.105Z,0.90
2019-02-10T18:53:19.994Z,0.90
2019-02-10T18:55:53.222Z,0.67
2019-02-10T18:58:30.603Z,1.00
2019-02-10T19:01:17.819Z,0.80
2019-02-10T19:03:51.309Z,1.10
2019-02-10T19:06:25.080Z,0.73
2019-02-10T19:09:04.467Z,0.90
2019-02-10T19:11:35.226Z,0.90
2019-02-10T19:14:06.005Z,0.70
2019-02-10T19:16:45.988Z,0.70
2019-02-10T19:19:22.379Z,1.03
2019-02-10T19:22:09.863Z,0.90
2019-02-10T19:24:46.444Z,0.90
2019-02-10T19:27:17.479Z,0.80
2019-02-10T19:29:54.591Z,0.83
2019-02-10T19:32:28.350Z,0.80
2019-02-10T19:35:08.393Z,0.60
2019-02-10T19:37:41.870Z,0.83
2019-02-10T19:40:21.488Z,0.70
2019-02-10T19:42:52.482Z,0.70
2019-02-10T19:45:32.424Z,1.00
2019-02-10T19:48:17.747Z,0.90
2019-02-10T19:50:54.386Z,0.80
2019-02-10T19:53:27.863Z,0.60
2019-02-10T19:55:58.643Z,0.70
2019-02-10T19:58:43.983Z,0.70
2019-02-10T20:01:29.919Z,0.80
2019-02-10T20:04:03.882Z,0.70
2019-02-10T20:06:34.922Z,0.73
2019-02-10T20:09:07.605Z,0.77
2019-02-10T20:11:44.563Z,0.80
2019-02-10T20:14:21.727Z,0.80
2019-02-10T20:16:52.525Z,0.77
2019-02-10T20:19:23.571Z,0.70
2019-02-10T20:21:54.572Z,1.33
2019-02-10T20:24:41.426Z,0.50
2019-02-10T20:27:28.687Z,0.67
2019-02-10T20:30:15.577Z,0.77
2019-02-10T20:32:46.478Z,0.70
2019-02-10T20:35:32.574Z,0.90
2019-02-10T20:38:08.988Z,1.30
2019-02-10T20:40:40.206Z,1.63
2019-02-10T20:43:11.230Z,1.10
2019-02-10T20:45:58.175Z,0.83
2019-02-10T20:48:32.220Z,1.50
2019-02-10T20:51:17.529Z,0.87
2019-02-10T20:54:00.164Z,0.90
2019-02-10T20:56:36.720Z,0.70
2019-02-10T20:59:07.793Z,0.70
2019-02-10T21:01:38.830Z,0.90
2019-02-10T21:04:21.506Z,0.50
2019-02-10T21:06:52.536Z,0.67
2019-02-10T21:09:39.802Z,0.70
2019-02-10T21:12:22.384Z,0.90
2019-02-10T21:15:04.915Z,0.77
2019-02-10T21:17:44.603Z,1.10
2019-02-10T21:20:18.259Z,0.80
2019-02-10T21:22:55.129Z,0.80
2019-02-10T21:25:27.247Z,0.70
2019-02-10T21:28:12.685Z,0.60
2019-02-10T21:30:59.544Z,0.70
2019-02-10T21:33:30.342Z,0.70
2019-02-10T21:36:01.335Z,1.50
2019-02-10T21:38:38.365Z,1.00
2019-02-10T21:41:21.487Z,0.90
2019-02-10T21:43:55.348Z,0.90
2019-02-10T21:46:35.107Z,0.90
2019-02-10T21:49:05.243Z,1.00
2019-02-10T21:51:34.454Z,1.30
2019-02-10T21:54:03.840Z,0.80
2019-02-10T21:56:32.985Z,0.60
2019-02-10T21:59:02.388Z,0.63
2019-02-10T22:01:31.518Z,0.70
2019-02-10T22:04:00.902Z,0.80
2019-02-10T22:06:30.071Z,0.67
2019-02-10T22:08:59.233Z,0.70
2019-02-10T22:11:28.591Z,0.70
2019-02-10T22:13:58.079Z,0.67
2019-02-10T22:16:27.757Z,0.70
2019-02-10T22:18:57.218Z,0.77
2019-02-10T22:21:26.355Z,0.73
2019-02-10T22:23:55.548Z,0.67
2019-02-10T22:26:24.955Z,0.70
2019-02-10T22:28:54.102Z,0.50
2019-02-10T22:31:23.237Z,0.60
2019-02-10T22:33:52.393Z,0.90
2019-02-10T22:36:21.819Z,0.70
2019-02-10T22:38:51.178Z,0.70
2019-02-10T22:41:20.314Z,0.80
2019-02-10T22:43:49.697Z,0.70
2019-02-10T22:46:18.856Z,0.63
2019-02-10T22:48:48.002Z,0.60
2019-02-10T22:51:17.377Z,0.63
2019-02-10T22:53:46.597Z,0.70
2019-02-10T22:56:16.237Z,0.60
2019-02-10T22:58:45.367Z,0.50
2019-02-10T23:01:14.898Z,0.77
2019-02-10T23:03:44.057Z,0.50
2019-02-10T23:06:13.517Z,0.60
2019-02-10T23:08:42.949Z,0.53
2019-02-10T23:11:12.413Z,0.60
2019-02-10T23:13:41.818Z,0.50
2019-02-10T23:16:11.246Z,0.67
2019-02-10T23:18:40.405Z,0.60
2019-02-10T23:21:09.563Z,0.73
2019-02-10T23:23:38.670Z,0.70
2019-02-10T23:26:08.073Z,0.50
2019-02-10T23:28:37.227Z,0.50
2019-02-10T23:31:06.604Z,0.47
2019-02-10T23:33:36.040Z,0.80
2019-02-10T23:36:05.181Z,0.70
2019-02-10T23:38:34.563Z,0.60
2019-02-10T23:41:03.840Z,0.50
2019-02-10T23:43:33.077Z,0.70
2019-02-10T23:46:02.514Z,0.50
2019-02-10T23:48:31.715Z,0.60
2019-02-10T23:51:00.847Z,0.50
2019-02-10T23:53:29.962Z,0.50
2019-02-10T23:55:59.521Z,0.50
2019-02-10T23:58:28.923Z,0.67
